Decoded Metar for SBMO (MACEIO in BRAZIL) (IATA:MCZ) | Meteo·Mobile Aviation Weather
aviador You're here:

SBMO Decoded Metar

MACEIO in BRAZIL
Report Time2018-09-23 13:00:00
UTC Time2018-09-23 12:59:45
Flight Rules mvfr MVFR
Wind100° at 05 kt
W.Decomp.*RWY 12: 5.0 kt HW 0.2 kt RCW
W.Rank100° ranks 1
Current wind is below 100° avg. (8.0)
Visibility9999 m
Phenomena:N/A
Clouds:Broken 020 Hf
Expected CloudBase > 2,800 ft AGL from Temp-Dew spread
Ceiling2,000 ft
Temp28°C (ISA +14)
Dew Point21°C (66% RH)
Heat Index30.2°C
QNH1015 hPa
Density Alt2,221 ft
Elevation377 ft
Report Wrong Elevation
Raw Report
METAR SBMO 231300Z 10005KT 9999 BKN020 28/21 Q1015=

Extra information for SBMO:More info

Metar Taf Metar & Taf Last 4 Metars F.Rules Stats Wind Profile Meteogram Temp Stats Airport Information Weather charts Add Link Nearby VenuesMetar ALERT Operation Metar Decoded Social comments